createdAt,value
2018-04-16T00:02:08.557Z,13.00
2018-04-16T00:04:36.213Z,12.90
2018-04-16T00:07:03.809Z,13.00
2018-04-16T00:09:32.306Z,13.00
2018-04-16T00:12:00.350Z,12.90
2018-04-16T00:14:28.006Z,12.90
2018-04-16T00:16:56.494Z,12.90
2018-04-16T00:19:24.104Z,12.90
2018-04-16T00:21:51.728Z,12.90
2018-04-16T00:24:20.128Z,12.80
2018-04-16T00:26:48.429Z,12.80
2018-04-16T00:29:16.037Z,12.70
2018-04-16T00:34:52.325Z,12.70
2018-04-16T00:37:26.346Z,12.60
2018-04-16T00:39:59.657Z,12.60
2018-04-16T00:42:33.245Z,12.70
2018-04-16T00:45:06.595Z,12.70
2018-04-16T00:47:41.522Z,12.80
2018-04-16T00:50:14.901Z,12.70
2018-04-16T00:55:48.719Z,12.70
2018-04-16T00:58:22.197Z,12.70
2018-04-16T01:00:55.544Z,12.60
2018-04-16T01:03:28.994Z,12.60
2018-04-16T01:06:02.401Z,12.50
2018-04-16T01:08:36.392Z,12.50
2018-04-16T01:11:09.676Z,12.50
2018-04-16T01:13:42.953Z,12.50
2018-04-16T01:19:17.081Z,12.40
2018-04-16T01:21:51.268Z,12.30
2018-04-16T01:24:24.456Z,12.30
2018-04-16T01:26:57.874Z,12.40
2018-04-16T01:29:32.060Z,12.50
2018-04-16T01:32:06.160Z,12.40
2018-04-16T01:34:39.424Z,12.50
2018-04-16T01:37:12.716Z,12.50
2018-04-16T01:39:45.956Z,12.40
2018-04-16T01:42:19.457Z,12.30
2018-04-16T01:44:52.748Z,12.30
2018-04-16T01:47:25.998Z,12.20
2018-04-16T01:49:59.445Z,12.30
2018-04-16T01:52:32.789Z,12.20
2018-04-16T01:55:06.222Z,12.20
2018-04-16T01:57:39.507Z,12.20
2018-04-16T02:00:12.892Z,12.20
2018-04-16T02:02:46.216Z,12.20
2018-04-16T02:05:21.309Z,12.10
2018-04-16T02:10:56.982Z,12.10
2018-04-16T02:13:30.266Z,12.00
2018-04-16T02:16:03.638Z,12.00
2018-04-16T02:18:37.608Z,11.80
2018-04-16T02:21:11.021Z,11.80
2018-04-16T02:23:45.093Z,11.90
2018-04-16T02:26:19.501Z,11.80
2018-04-16T02:28:52.756Z,11.80
2018-04-16T02:31:27.096Z,11.80
2018-04-16T02:34:00.419Z,11.70
2018-04-16T02:39:37.341Z,11.80
2018-04-16T02:42:11.045Z,11.80
2018-04-16T02:44:44.413Z,11.80
2018-04-16T02:47:18.528Z,11.90
2018-04-16T02:49:51.899Z,11.90
2018-04-16T02:55:27.824Z,11.80
2018-04-16T03:01:07.126Z,11.90
2018-04-16T03:03:41.248Z,11.90
2018-04-16T03:06:14.590Z,11.90
2018-04-16T03:11:49.600Z,12.00
2018-04-16T03:14:22.865Z,11.90
2018-04-16T03:16:56.109Z,12.00
2018-04-16T03:19:29.505Z,12.00
2018-04-16T03:22:02.881Z,12.10
2018-04-16T03:24:36.222Z,12.10
2018-04-16T03:27:10.310Z,12.30
2018-04-16T03:29:45.193Z,12.30
2018-04-16T03:32:18.615Z,12.30
2018-04-16T03:34:52.761Z,12.30
2018-04-16T03:37:26.891Z,12.30
2018-04-16T03:40:00.259Z,12.30
2018-04-16T03:42:33.845Z,12.40
2018-04-16T03:45:07.087Z,12.40
2018-04-16T03:47:40.243Z,12.40
2018-04-16T03:50:13.640Z,12.40
2018-04-16T03:52:47.114Z,12.30
2018-04-16T03:55:19.752Z,12.30
2018-04-16T03:57:47.402Z,12.20
2018-04-16T04:00:15.937Z,12.20
2018-04-16T04:02:43.524Z,12.20
2018-04-16T04:05:11.127Z,12.20
2018-04-16T04:07:38.769Z,12.10
2018-04-16T04:10:06.358Z,12.00
2018-04-16T04:12:34.019Z,12.00
2018-04-16T04:15:01.603Z,12.00
2018-04-16T04:17:29.189Z,12.10
2018-04-16T04:19:57.578Z,12.20
2018-04-16T04:22:37.806Z,12.10
2018-04-16T04:25:17.335Z,12.10
2018-04-16T04:27:56.909Z,12.10
2018-04-16T04:30:32.293Z,12.20
2018-04-16T04:32:59.912Z,12.20
2018-04-16T04:35:28.325Z,12.30
2018-04-16T04:37:55.954Z,12.30
2018-04-16T04:40:24.373Z,12.30
2018-04-16T04:42:51.998Z,12.30
2018-04-16T04:45:20.373Z,12.40
2018-04-16T04:47:47.969Z,12.40
2018-04-16T04:50:15.708Z,12.40
2018-04-16T04:52:43.338Z,12.40
2018-04-16T04:55:12.616Z,12.40
2018-04-16T04:57:40.437Z,12.40
2018-04-16T05:00:08.829Z,12.40
2018-04-16T05:02:37.599Z,12.40
2018-04-16T05:05:05.257Z,12.40
2018-04-16T05:07:32.891Z,12.40
2018-04-16T05:10:01.327Z,12.40
2018-04-16T05:12:28.938Z,12.30
2018-04-16T05:14:57.366Z,12.30
2018-04-16T05:17:25.693Z,12.30
2018-04-16T05:19:54.667Z,12.20
2018-04-16T05:22:22.345Z,12.20
2018-04-16T05:24:50.736Z,12.20
2018-04-16T05:27:18.364Z,12.20
2018-04-16T05:29:46.767Z,12.30
2018-04-16T05:32:15.147Z,12.30
2018-04-16T05:34:43.518Z,12.30
2018-04-16T05:37:12.385Z,12.30
2018-04-16T05:39:40.123Z,12.30
2018-04-16T05:42:08.105Z,12.40
2018-04-16T05:44:35.732Z,12.40
2018-04-16T05:47:04.712Z,12.30
2018-04-16T05:49:32.376Z,12.30
2018-04-16T05:52:00.062Z,12.30
2018-04-16T05:54:27.666Z,12.20
2018-04-16T05:56:57.040Z,12.10
2018-04-16T05:59:24.718Z,12.10
2018-04-16T06:01:53.166Z,12.20
2018-04-16T06:04:20.807Z,12.20
2018-04-16T06:06:48.483Z,12.20
2018-04-16T06:09:16.117Z,12.20
2018-04-16T06:11:43.796Z,12.20
2018-04-16T06:14:11.658Z,12.20
2018-04-16T06:16:39.264Z,12.20
2018-04-16T06:19:06.911Z,12.20
2018-04-16T06:21:35.383Z,12.00
2018-04-16T06:24:03.158Z,12.00
2018-04-16T06:26:31.034Z,12.00
2018-04-16T06:28:59.562Z,11.90
2018-04-16T06:31:27.177Z,11.80
2018-04-16T06:33:57.246Z,11.80
2018-04-16T06:36:24.907Z,11.80
2018-04-16T06:38:52.493Z,11.80
2018-04-16T06:41:20.153Z,11.80
2018-04-16T06:43:47.824Z,11.80
2018-04-16T06:46:16.089Z,11.80
2018-04-16T06:48:45.739Z,11.80
2018-04-16T06:51:13.447Z,11.80
2018-04-16T06:53:42.303Z,11.80
2018-04-16T06:56:10.077Z,11.80
2018-04-16T06:58:38.377Z,11.80
2018-04-16T07:01:06.153Z,11.80
2018-04-16T07:03:34.567Z,11.90
2018-04-16T07:06:03.546Z,12.00
2018-04-16T07:08:31.192Z,12.00
2018-04-16T07:11:00.248Z,12.20
2018-04-16T07:13:27.849Z,12.20
2018-04-16T07:15:55.515Z,12.30
2018-04-16T07:18:23.186Z,12.40
2018-04-16T07:20:52.041Z,12.30
2018-04-16T07:23:19.802Z,12.30
2018-04-16T07:25:47.566Z,12.20
2018-04-16T07:28:15.231Z,12.10
2018-04-16T07:30:42.828Z,12.20
2018-04-16T07:33:11.604Z,12.30
2018-04-16T07:35:41.144Z,12.20
2018-04-16T07:38:10.357Z,12.00
2018-04-16T07:40:39.672Z,12.10
2018-04-16T07:43:07.353Z,12.10
2018-04-16T07:45:35.794Z,12.10
2018-04-16T07:48:04.296Z,12.10
2018-04-16T07:50:31.953Z,12.30
2018-04-16T07:52:59.612Z,12.30
2018-04-16T07:55:27.239Z,12.40
2018-04-16T07:57:54.890Z,12.50
2018-04-16T08:00:23.315Z,12.50
2018-04-16T08:02:51.044Z,12.50
2018-04-16T08:05:18.661Z,12.40
2018-04-16T08:07:47.049Z,12.30
2018-04-16T08:10:16.303Z,12.30
2018-04-16T08:12:43.933Z,12.30
2018-04-16T08:15:11.536Z,12.30
2018-04-16T08:17:39.226Z,12.20
2018-04-16T08:20:06.876Z,12.20
2018-04-16T08:22:34.496Z,12.20
2018-04-16T08:25:02.140Z,12.20
2018-04-16T08:27:30.677Z,12.50
2018-04-16T08:29:58.525Z,12.40
2018-04-16T08:32:26.204Z,12.50
2018-04-16T08:34:53.846Z,12.50
2018-04-16T08:37:21.625Z,12.50
2018-04-16T08:39:49.731Z,12.50
2018-04-16T08:42:18.154Z,12.40
2018-04-16T08:44:45.747Z,12.30
2018-04-16T08:47:13.365Z,12.50
2018-04-16T08:49:41.017Z,12.50
2018-04-16T08:52:08.657Z,12.60
2018-04-16T08:54:37.093Z,12.70
2018-04-16T08:57:04.705Z,12.70
2018-04-16T08:59:32.355Z,12.60
2018-04-16T09:02:00.733Z,12.60
2018-04-16T09:04:29.140Z,12.90
2018-04-16T09:06:56.821Z,12.90
2018-04-16T09:09:24.547Z,13.10
2018-04-16T09:11:52.347Z,13.60
2018-04-16T09:14:20.102Z,13.70
2018-04-16T09:16:47.763Z,13.80
2018-04-16T09:19:15.392Z,13.90
2018-04-16T09:21:43.092Z,14.00
2018-04-16T09:24:10.691Z,14.00
2018-04-16T09:26:39.157Z,14.30
2018-04-16T09:29:06.826Z,14.30
2018-04-16T09:31:34.463Z,14.30
2018-04-16T09:34:02.733Z,14.30
2018-04-16T09:36:30.516Z,14.20
2018-04-16T09:38:58.170Z,14.00
2018-04-16T09:41:25.905Z,14.20
2018-04-16T09:43:53.574Z,14.20
2018-04-16T09:46:21.210Z,14.30
2018-04-16T09:48:48.860Z,14.50
2018-04-16T09:51:17.297Z,14.80
2018-04-16T09:53:44.915Z,14.80
2018-04-16T09:56:12.593Z,15.10
2018-04-16T09:58:40.222Z,15.50
2018-04-16T10:01:14.461Z,15.50
2018-04-16T10:03:42.177Z,15.50
2018-04-16T10:06:09.794Z,15.30
2018-04-16T10:08:37.475Z,15.20
2018-04-16T10:11:05.117Z,15.40
2018-04-16T10:13:32.785Z,15.40
2018-04-16T10:16:00.562Z,15.30
2018-04-16T10:18:28.512Z,15.20
2018-04-16T10:20:56.149Z,15.30
2018-04-16T10:23:23.830Z,15.30
2018-04-16T10:25:51.420Z,15.30
2018-04-16T10:28:19.073Z,15.20
2018-04-16T10:30:46.797Z,15.20
2018-04-16T10:33:15.033Z,15.10
2018-04-16T10:35:42.690Z,15.30
2018-04-16T10:38:11.104Z,15.50
2018-04-16T10:40:39.495Z,15.80
2018-04-16T10:43:07.713Z,15.80
2018-04-16T10:45:35.377Z,16.10
2018-04-16T10:48:03.055Z,16.20
2018-04-16T10:50:31.463Z,16.70
2018-04-16T10:52:59.111Z,16.70
2018-04-16T10:55:26.751Z,17.10
2018-04-16T10:57:55.165Z,17.60
2018-04-16T11:00:22.780Z,17.60
2018-04-16T11:02:51.170Z,18.10
2018-04-16T11:05:19.554Z,18.20
2018-04-16T11:07:47.940Z,18.00
2018-04-16T11:10:16.390Z,18.10
2018-04-16T11:12:44.831Z,18.00
2018-04-16T11:15:12.496Z,17.90
2018-04-16T11:17:40.115Z,17.90
2018-04-16T11:20:08.537Z,18.10
2018-04-16T11:22:36.304Z,18.10
2018-04-16T11:25:03.957Z,18.10
2018-04-16T11:27:31.618Z,17.70
2018-04-16T11:29:59.292Z,17.90
2018-04-16T11:32:26.900Z,18.00
2018-04-16T11:34:55.844Z,17.80
2018-04-16T11:37:23.496Z,17.70
2018-04-16T11:39:51.156Z,18.10
2018-04-16T11:42:18.792Z,18.10
2018-04-16T11:44:46.409Z,18.10
2018-04-16T11:47:14.054Z,18.10
2018-04-16T11:49:41.798Z,18.50
2018-04-16T11:52:09.468Z,18.40
2018-04-16T11:54:37.160Z,18.80
2018-04-16T11:57:05.515Z,18.50
2018-04-16T11:59:33.139Z,18.40
2018-04-16T12:02:00.774Z,18.50
2018-04-16T12:04:29.225Z,19.00
2018-04-16T12:06:57.678Z,19.10
2018-04-16T12:09:25.389Z,19.10
2018-04-16T12:11:53.804Z,19.10
2018-04-16T12:14:22.097Z,19.10
2018-04-16T12:16:49.805Z,19.00
2018-04-16T12:19:18.235Z,19.30
2018-04-16T12:21:46.316Z,19.30
2018-04-16T12:24:13.946Z,19.70
2018-04-16T12:26:41.584Z,19.60
2018-04-16T12:29:09.969Z,19.30
2018-04-16T12:31:39.242Z,19.10
2018-04-16T12:34:06.883Z,19.10
2018-04-16T12:36:34.521Z,19.10
2018-04-16T12:39:02.126Z,19.10
2018-04-16T12:41:29.817Z,18.70
2018-04-16T12:43:57.508Z,18.70
2018-04-16T12:46:25.155Z,18.70
2018-04-16T12:48:52.800Z,18.60
2018-04-16T12:51:21.146Z,18.40
2018-04-16T12:53:48.906Z,18.50
2018-04-16T12:56:17.404Z,18.40
2018-04-16T12:58:45.779Z,18.30
2018-04-16T13:01:14.164Z,18.10
2018-04-16T13:03:41.841Z,18.10
2018-04-16T13:06:09.435Z,17.90
2018-04-16T13:08:37.062Z,18.00
2018-04-16T13:11:04.786Z,18.00
2018-04-16T13:13:33.180Z,18.30
2018-04-16T13:16:01.597Z,18.50
2018-04-16T13:18:29.266Z,18.50
2018-04-16T13:20:57.042Z,18.50
2018-04-16T13:23:24.730Z,18.40
2018-04-16T13:25:52.457Z,18.60
2018-04-16T13:28:20.080Z,18.50
2018-04-16T13:30:47.671Z,18.30
2018-04-16T13:33:15.354Z,18.20
2018-04-16T13:35:43.036Z,18.10
2018-04-16T13:38:10.653Z,17.90
2018-04-16T13:40:38.426Z,17.70
2018-04-16T13:43:06.128Z,17.70
2018-04-16T13:45:34.565Z,17.60
2018-04-16T13:48:02.160Z,17.60
2018-04-16T13:50:31.030Z,17.50
2018-04-16T13:52:58.826Z,17.50
2018-04-16T13:55:27.255Z,17.50
2018-04-16T13:57:54.993Z,17.50
2018-04-16T14:00:22.658Z,17.40
2018-04-16T14:02:50.368Z,17.20
2018-04-16T14:05:18.119Z,17.10
2018-04-16T14:07:45.803Z,17.10
2018-04-16T14:10:13.409Z,16.90
2018-04-16T14:12:40.994Z,16.70
2018-04-16T14:15:08.756Z,16.50
2018-04-16T14:17:36.388Z,16.40
2018-04-16T14:20:04.056Z,16.20
2018-04-16T14:22:31.666Z,16.20
2018-04-16T14:24:59.276Z,16.20
2018-04-16T14:27:26.998Z,16.10
2018-04-16T14:29:55.631Z,16.00
2018-04-16T14:32:23.324Z,16.00
2018-04-16T14:34:51.008Z,16.00
2018-04-16T14:37:19.365Z,15.90
2018-04-16T14:39:47.945Z,15.80
2018-04-16T14:42:16.618Z,15.80
2018-04-16T14:44:44.259Z,15.70
2018-04-16T14:47:11.930Z,15.60
2018-04-16T14:49:39.564Z,15.50
2018-04-16T14:52:07.190Z,15.40
2018-04-16T14:54:35.655Z,15.10
2018-04-16T14:57:04.060Z,15.00
2018-04-16T14:59:32.430Z,14.80
2018-04-16T15:02:00.823Z,14.70
2018-04-16T15:04:29.256Z,14.60
2018-04-16T15:06:56.840Z,14.60
2018-04-16T15:09:25.281Z,14.50
2018-04-16T15:11:52.931Z,14.50
2018-04-16T15:14:20.530Z,14.50
2018-04-16T15:16:48.166Z,14.50
2018-04-16T15:19:16.027Z,14.50
2018-04-16T15:21:43.636Z,14.50
2018-04-16T15:24:12.993Z,14.40
2018-04-16T15:26:40.680Z,14.40
2018-04-16T15:29:08.413Z,14.40
2018-04-16T15:31:36.072Z,14.30
2018-04-16T15:34:03.669Z,14.20
2018-04-16T15:36:31.908Z,14.20
2018-04-16T15:38:59.572Z,14.20
2018-04-16T15:41:27.230Z,14.10
2018-04-16T15:43:54.929Z,14.10
2018-04-16T15:46:22.559Z,14.10
2018-04-16T15:48:50.154Z,14.10
2018-04-16T15:51:18.595Z,14.10
2018-04-16T15:53:47.008Z,14.10
2018-04-16T15:56:16.066Z,14.20
2018-04-16T15:58:43.689Z,14.10
2018-04-16T16:01:12.191Z,14.20
2018-04-16T16:03:39.826Z,14.20
2018-04-16T16:06:07.436Z,14.30
2018-04-16T16:08:35.930Z,14.30
2018-04-16T16:11:04.478Z,14.30
2018-04-16T16:13:32.162Z,14.30
2018-04-16T16:15:59.924Z,14.30
2018-04-16T16:18:27.524Z,14.40
2018-04-16T16:20:55.968Z,14.50
2018-04-16T16:23:24.455Z,14.50
2018-04-16T16:25:52.087Z,14.50
2018-04-16T16:28:19.703Z,14.60
2018-04-16T16:30:48.153Z,14.50
2018-04-16T16:33:15.795Z,14.50
2018-04-16T16:35:43.408Z,14.50
2018-04-16T16:38:11.934Z,14.50
2018-04-16T16:40:39.575Z,14.50
2018-04-16T16:43:07.280Z,14.50
2018-04-16T16:45:34.884Z,14.40
2018-04-16T16:48:02.490Z,14.30
2018-04-16T16:50:30.131Z,14.30
2018-04-16T16:52:57.754Z,14.40
2018-04-16T16:55:26.124Z,14.40
2018-04-16T16:57:54.527Z,14.40
2018-04-16T17:00:22.233Z,14.40
2018-04-16T17:02:49.891Z,14.40
2018-04-16T17:05:17.604Z,14.50
2018-04-16T17:07:45.317Z,14.50
2018-04-16T17:10:13.003Z,14.50
2018-04-16T17:12:41.408Z,14.40
2018-04-16T17:15:09.038Z,14.40
2018-04-16T17:17:36.728Z,14.40
2018-04-16T17:20:04.450Z,14.40
2018-04-16T17:22:32.067Z,14.40
2018-04-16T17:25:00.313Z,14.40
2018-04-16T17:27:28.735Z,14.40
2018-04-16T17:29:56.608Z,14.40
2018-04-16T17:32:24.265Z,14.40
2018-04-16T17:34:51.959Z,14.30
2018-04-16T17:37:19.604Z,14.30
2018-04-16T17:39:47.223Z,14.30
2018-04-16T17:42:14.945Z,14.30
2018-04-16T17:44:43.351Z,14.20
2018-04-16T17:47:29.714Z,14.20
2018-04-16T17:49:57.385Z,14.20
2018-04-16T17:52:25.048Z,14.20
2018-04-16T17:54:53.457Z,14.20
2018-04-16T17:57:21.079Z,14.20
2018-04-16T17:59:48.753Z,14.20
2018-04-16T18:02:17.159Z,14.20
2018-04-16T18:04:44.846Z,14.20
2018-04-16T18:07:12.676Z,14.20
2018-04-16T18:09:40.283Z,14.10
2018-04-16T18:12:07.902Z,14.20
2018-04-16T18:14:35.581Z,14.20
2018-04-16T18:17:04.047Z,14.10
2018-04-16T18:19:32.374Z,14.10
2018-04-16T18:22:00.944Z,14.10
2018-04-16T18:24:28.575Z,14.10
2018-04-16T18:26:56.991Z,14.10
2018-04-16T18:29:36.614Z,14.10
2018-04-16T18:32:05.155Z,14.10
2018-04-16T18:34:33.602Z,14.00
2018-04-16T18:37:01.272Z,14.00
2018-04-16T18:39:28.926Z,14.00
2018-04-16T18:41:57.780Z,14.00
2018-04-16T18:44:25.473Z,14.00
2018-04-16T18:46:53.146Z,13.90
2018-04-16T18:49:20.945Z,13.90
2018-04-16T18:51:48.771Z,13.90
2018-04-16T18:54:16.398Z,13.90
2018-04-16T18:56:44.322Z,13.90
2018-04-16T18:59:12.679Z,13.90
2018-04-16T19:01:41.074Z,13.90
2018-04-16T19:04:09.559Z,13.80
2018-04-16T19:06:37.930Z,13.80
2018-04-16T19:09:06.295Z,13.80
2018-04-16T19:11:34.790Z,13.80
2018-04-16T19:14:03.197Z,13.80
2018-04-16T19:16:30.834Z,13.80
2018-04-16T19:18:59.268Z,13.80
2018-04-16T19:21:32.632Z,13.80
2018-04-16T19:24:00.220Z,13.80
2018-04-16T19:26:27.905Z,13.80
2018-04-16T19:28:55.542Z,13.70
2018-04-16T19:31:23.260Z,13.70
2018-04-16T19:33:56.741Z,13.70
2018-04-16T19:36:24.367Z,13.70
2018-04-16T19:38:51.999Z,13.60
2018-04-16T19:41:19.669Z,13.60
2018-04-16T19:43:47.296Z,13.60
2018-04-16T19:46:15.654Z,13.60
2018-04-16T19:51:49.000Z,13.60
2018-04-16T19:54:16.713Z,13.50
2018-04-16T19:56:49.945Z,13.50
2018-04-16T19:59:17.722Z,13.50
2018-04-16T20:01:45.507Z,13.40
2018-04-16T20:04:13.115Z,13.40
2018-04-16T20:06:41.846Z,13.40
2018-04-16T20:09:09.467Z,13.30
2018-04-16T20:11:37.822Z,13.30
2018-04-16T20:14:05.443Z,13.30
2018-04-16T20:16:33.124Z,13.30
2018-04-16T20:19:00.962Z,13.30
2018-04-16T20:21:29.286Z,13.20
2018-04-16T20:23:57.016Z,13.20
2018-04-16T20:26:24.715Z,13.20
2018-04-16T20:28:52.355Z,13.20
2018-04-16T20:31:20.114Z,13.10
2018-04-16T20:33:47.865Z,13.10
2018-04-16T20:36:15.618Z,13.10
2018-04-16T20:38:43.357Z,13.10
2018-04-16T20:41:10.994Z,13.10
2018-04-16T20:43:39.478Z,13.00
2018-04-16T20:46:07.858Z,12.90
2018-04-16T20:48:36.291Z,12.90
2018-04-16T20:51:04.015Z,12.90
2018-04-16T20:53:32.018Z,12.90
2018-04-16T20:55:59.835Z,12.80
2018-04-16T20:58:28.217Z,12.70
2018-04-16T21:00:56.983Z,12.70
2018-04-16T21:03:24.615Z,12.70
2018-04-16T21:05:52.255Z,12.70
2018-04-16T21:08:19.974Z,12.60
2018-04-16T21:10:48.377Z,12.60
2018-04-16T21:13:18.435Z,12.50
2018-04-16T21:15:46.133Z,12.50
2018-04-16T21:18:14.510Z,12.50
2018-04-16T21:20:42.097Z,12.40
2018-04-16T21:23:09.750Z,12.40
2018-04-16T21:25:38.601Z,12.40
2018-04-16T21:28:06.225Z,12.40
2018-04-16T21:30:34.951Z,12.30
2018-04-16T21:33:02.531Z,12.30
2018-04-16T21:35:30.957Z,12.30
2018-04-16T21:37:58.625Z,12.20
2018-04-16T21:40:26.243Z,12.20
2018-04-16T21:42:54.647Z,12.10
2018-04-16T21:45:22.267Z,12.10
2018-04-16T21:47:50.673Z,12.00
2018-04-16T21:50:18.351Z,12.00
2018-04-16T21:52:45.980Z,12.00
2018-04-16T21:55:14.359Z,11.90
2018-04-16T21:57:42.857Z,11.90
2018-04-16T22:00:13.879Z,11.90
2018-04-16T22:02:43.094Z,11.80
2018-04-16T22:05:12.482Z,11.80
2018-04-16T22:07:40.879Z,11.70
2018-04-16T22:10:08.844Z,11.70
2018-04-16T22:12:36.436Z,11.70
2018-04-16T22:15:04.303Z,11.70
2018-04-16T22:17:31.915Z,11.70
2018-04-16T22:20:00.300Z,11.70
2018-04-16T22:22:27.961Z,11.70
2018-04-16T22:24:55.567Z,11.70
2018-04-16T22:27:23.171Z,11.70
2018-04-16T22:29:51.596Z,11.70
2018-04-16T22:32:19.793Z,11.70
2018-04-16T22:34:48.207Z,11.70
2018-04-16T22:37:16.602Z,11.60
2018-04-16T22:39:44.214Z,11.60
2018-04-16T22:42:12.666Z,11.60
2018-04-16T22:44:40.365Z,11.60
2018-04-16T22:47:09.437Z,11.50
2018-04-16T22:49:37.159Z,11.50
2018-04-16T22:52:04.971Z,11.50
2018-04-16T22:54:32.616Z,11.50
2018-04-16T22:57:00.290Z,11.50
2018-04-16T22:59:27.905Z,11.40
2018-04-16T23:01:55.606Z,11.50
2018-04-16T23:04:24.097Z,11.40
2018-04-16T23:06:52.433Z,11.40
2018-04-16T23:09:20.083Z,11.50
2018-04-16T23:11:47.780Z,11.40
2018-04-16T23:14:15.473Z,11.40
2018-04-16T23:16:43.117Z,11.40
2018-04-16T23:19:10.796Z,11.40
2018-04-16T23:21:38.424Z,11.40
2018-04-16T23:24:06.009Z,11.30
2018-04-16T23:26:34.450Z,11.30
2018-04-16T23:29:02.059Z,11.30
2018-04-16T23:31:30.648Z,11.30
2018-04-16T23:33:59.034Z,11.30
2018-04-16T23:36:26.679Z,11.30
2018-04-16T23:38:58.110Z,11.30
2018-04-16T23:41:27.279Z,11.30
2018-04-16T23:43:54.929Z,11.30
2018-04-16T23:46:22.601Z,11.30
2018-04-16T23:48:50.820Z,11.30
2018-04-16T23:51:19.191Z,11.30
2018-04-16T23:53:47.592Z,11.30
2018-04-16T23:56:15.747Z,11.20
2018-04-16T23:58:44.122Z,11.20
